KPIM/PIM METAR and TAF weather

Enter ICAO airport designator
Station Type Date Time Source
KPIM METAR 2019/02/17 07:35 UTC NOAA

KPIM 170735Z AUTO 00000KT 10SM SCT038 OVC120 11/10 A2987 RMK AO2 T01130095 PWINO


Station Type Date Time Source
KPIM Decoded METAR 2019/02/17 07:35 UTC NOAA

Station name not available
Feb 17, 2019 - 02:35 AM EST / 2019.02.17 0735 UTC
Wind: Calm:0
Visibility: 10 mile(s):0
Sky conditions: overcast
Temperature: 52.3 F (11.3 C)
Dew Point: 49.1 F (9.5 C)
Relative Humidity: 88%
Pressure (altimeter): 29.87 in. Hg (1011 hPa)
ob: KPIM 170735Z AUTO 00000KT 10SM SCT038 OVC120 11/10 A2987 RMK AO2 T01130095 PWINO
cycle: 7

Station Type Date Time Source
KPIM TAF UTC NOAA

Error!


Example: see airport list